Etusivu
METAR-TAF:

METAR-TAF

Lentoasemat :

Wonderboom Airport

Pretoria, Etelä-Afrikka

Leveyspiiri: 25-39S, Pituuspiiri: 028-13E, korkeus merenpinnasta: 1248 m

Tämänhetkinen sää

Tämä raportti tehtiin 1 tunti ja 2 minuuttia sitten, kello 13.00 UTC
Tuuli 11 kn luoteesta
Lämpötila 26°C
Kosteus 9%
Ilmanpaine 1021 hPa

METAR: FAWB 131300Z AUTO 32011KT //// // ////// 26/M10 Q1021

Aika: 16:02 (14:02 UTC)

Sääennuste

Tämä raportti tehtiin 5 tuntia ja 2 minuuttia sitten, kello 09.00 UTC
Ennuste voimassa 13. päivästä klo 10 UTC - 13. päivään klo 18 UTC
Tuuli 3 kn eri suunnista
Näkyvyys 10 km tai enemmän
ei pilviä alle 1500 m:ssä eikä cumulonimbus-pilviä
Tulossa
13. päivästä klo 10 UTC - 13. päivään klo 12 UTC
Tuuli 10 kn pohjoisesta
Tulossa
13. päivästä klo 15 UTC - 13. päivään klo 17 UTC
Tuuli 3 kn eri suunnista

TAF: FAWB 130900Z 1310/1318 VRB03KT CAVOK TX26/1312Z TN13/1318Z BECMG 1310/1312 35010KT BECMG 1315/1317 VRB03KT

Säähavainnot ja -ennusteet yli 4000 lentoasemalta (METAR- ja TAF-raportit).

Käytössä olevat sääasemat on merkitty karttaan keltaisilla ja punaisilla pisteillä.

Aseta hiiri pisteen päälle nähdäksesi sääaseman nimen.

Klikkaa sitten nähdäksesi säähavainnot ja -ennusteet.

Kartan vaihtaminen: klikkaa mustalla rastilla varustettuja vihreitä pisteitä, niin voit zoomata sisään; viivalla varustettua vihreää pistettä, niin voit zoomata ulos tai vihreitä nuolia, niin pääset viereisille kartoille.


METAR-TAF: